createdAt,value
2023-04-14T00:00:59.077Z,15.43
2023-04-14T00:03:26.839Z,13.70
2023-04-14T00:05:54.770Z,12.27
2023-04-14T00:08:22.813Z,15.00
2023-04-14T00:10:52.107Z,14.40
2023-04-14T00:13:19.680Z,14.53
2023-04-14T00:15:47.173Z,14.70
2023-04-14T00:18:15.660Z,12.93
2023-04-14T00:20:44.158Z,11.70
2023-04-14T00:23:12.286Z,14.77
2023-04-14T00:25:40.178Z,14.80
2023-04-14T00:28:09.476Z,13.20
2023-04-14T00:30:37.586Z,12.63
2023-04-14T00:33:05.405Z,13.30
2023-04-14T00:35:33.333Z,13.40
2023-04-14T00:38:01.502Z,13.40
2023-04-14T00:40:31.468Z,13.40
2023-04-14T00:43:00.093Z,11.93
2023-04-14T00:45:30.213Z,13.87
2023-04-14T00:47:59.467Z,14.70
2023-04-14T00:50:27.461Z,16.83
2023-04-14T00:52:55.548Z,13.33
2023-04-14T00:55:23.398Z,13.50
2023-04-14T00:57:51.611Z,13.17
2023-04-14T01:00:19.660Z,15.27
2023-04-14T01:02:49.495Z,17.10
2023-04-14T01:05:20.157Z,15.43
2023-04-14T01:07:49.541Z,16.07
2023-04-14T01:10:17.635Z,13.20
2023-04-14T01:13:09.194Z,14.57
2023-04-14T01:15:40.402Z,15.33
2023-04-14T01:18:16.369Z,13.50
2023-04-14T01:20:46.011Z,15.00
2023-04-14T01:23:18.596Z,14.87
2023-04-14T01:26:13.727Z,16.23
2023-04-14T01:28:50.696Z,14.10
2023-04-14T01:31:26.011Z,14.30
2023-04-14T01:33:58.445Z,12.47
2023-04-14T01:36:34.264Z,13.90
2023-04-14T01:39:04.790Z,13.60
2023-04-14T01:41:34.264Z,13.60
2023-04-14T01:44:03.240Z,13.53
2023-04-14T01:46:35.658Z,13.03
2023-04-14T01:49:06.551Z,13.47
2023-04-14T01:51:35.927Z,12.60
2023-04-14T01:54:05.291Z,16.20
2023-04-14T01:56:34.153Z,16.73
2023-04-14T01:59:03.216Z,12.80
2023-04-14T02:01:31.120Z,14.50
2023-04-14T02:04:01.092Z,16.20
2023-04-14T02:06:29.686Z,10.80
2023-04-14T02:09:00.974Z,13.47
2023-04-14T02:11:29.003Z,10.97
2023-04-14T02:13:59.366Z,13.40
2023-04-14T02:16:27.566Z,15.90
2023-04-14T02:18:55.178Z,15.30
2023-04-14T02:21:25.697Z,11.33
2023-04-14T02:23:53.537Z,12.70
2023-04-14T02:26:23.442Z,13.33
2023-04-14T02:29:02.659Z,12.10
2023-04-14T02:31:31.479Z,13.43
2023-04-14T02:33:59.949Z,12.63
2023-04-14T02:36:33.231Z,11.37
2023-04-14T02:39:03.692Z,12.50
2023-04-14T02:41:34.135Z,13.90
2023-04-14T02:44:06.267Z,11.80
2023-04-14T02:46:38.512Z,10.87
2023-04-14T02:49:07.222Z,13.13
2023-04-14T02:51:38.911Z,11.60
2023-04-14T02:54:06.958Z,11.90
2023-04-14T02:56:41.465Z,13.00
2023-04-14T02:59:09.157Z,11.50
2023-04-14T03:01:44.793Z,11.63
2023-04-14T03:04:13.993Z,9.87
2023-04-14T03:06:47.065Z,10.77
2023-04-14T03:09:15.064Z,11.80
2023-04-14T03:11:43.052Z,9.37
2023-04-14T03:14:12.025Z,13.37
2023-04-14T03:16:40.863Z,10.07
2023-04-14T03:19:12.546Z,10.53
2023-04-14T03:21:43.464Z,9.77
2023-04-14T03:24:17.997Z,15.83
2023-04-14T03:26:46.837Z,13.67
2023-04-14T03:29:15.422Z,11.93
2023-04-14T03:31:44.975Z,12.40
2023-04-14T03:34:16.042Z,13.13
2023-04-14T03:36:49.325Z,12.27
2023-04-14T03:39:19.348Z,12.00
2023-04-14T03:41:51.580Z,11.00
2023-04-14T03:44:21.035Z,12.53
2023-04-14T03:46:51.203Z,14.73
2023-04-14T03:49:20.807Z,13.60
2023-04-14T03:51:51.926Z,13.37
2023-04-14T03:54:22.664Z,11.43
2023-04-14T03:56:51.790Z,13.63
2023-04-14T03:59:21.036Z,9.37
2023-04-14T04:01:49.141Z,11.83
2023-04-14T04:04:16.930Z,14.30
2023-04-14T04:06:46.078Z,12.80
2023-04-14T04:09:17.995Z,10.80
2023-04-14T04:11:48.325Z,12.53
2023-04-14T04:14:18.203Z,11.73
2023-04-14T04:16:50.007Z,10.90
2023-04-14T04:19:20.593Z,13.77
2023-04-14T04:21:50.250Z,14.23
2023-04-14T04:24:20.012Z,14.07
2023-04-14T04:26:49.799Z,14.30
2023-04-14T04:29:17.777Z,13.27
2023-04-14T04:31:45.603Z,14.60
2023-04-14T04:34:14.373Z,12.40
2023-04-14T04:36:42.483Z,22.77
2023-04-14T04:39:10.629Z,11.77
2023-04-14T04:41:41.529Z,11.60
2023-04-14T04:44:10.785Z,13.70
2023-04-14T04:46:50.322Z,19.33
2023-04-14T04:49:18.145Z,13.13
2023-04-14T04:51:46.912Z,11.90
2023-04-14T04:54:15.932Z,15.03
2023-04-14T04:56:43.421Z,12.27
2023-04-14T04:59:12.264Z,10.50
2023-04-14T05:01:40.105Z,11.30
2023-04-14T05:04:07.788Z,9.20
2023-04-14T05:06:37.027Z,13.40
2023-04-14T05:09:05.212Z,13.70
2023-04-14T05:11:33.189Z,14.30
2023-04-14T05:14:00.778Z,14.60
2023-04-14T05:16:29.982Z,21.97
2023-04-14T05:18:57.510Z,13.63
2023-04-14T05:21:25.167Z,14.40
2023-04-14T05:23:53.395Z,15.60
2023-04-14T05:26:44.795Z,15.90
2023-04-14T05:29:08.827Z,12.17
2023-04-14T05:31:37.870Z,13.00
2023-04-14T05:34:05.544Z,15.90
2023-04-14T05:36:33.037Z,14.77
2023-04-14T05:39:00.596Z,19.03
2023-04-14T05:41:28.121Z,13.90
2023-04-14T05:43:55.676Z,16.37
2023-04-14T05:46:23.259Z,15.07
2023-04-14T05:48:52.311Z,17.00
2023-04-14T05:51:19.815Z,16.77
2023-04-14T05:53:47.305Z,13.53
2023-04-14T05:56:14.846Z,15.13
2023-04-14T05:58:42.360Z,14.30
2023-04-14T06:01:10.142Z,16.43
2023-04-14T06:03:40.196Z,14.87
2023-04-14T06:06:09.975Z,14.23
2023-04-14T06:08:37.477Z,10.90
2023-04-14T06:11:05.339Z,11.90
2023-04-14T06:13:35.528Z,12.10
2023-04-14T06:16:04.153Z,12.67
2023-04-14T06:18:31.672Z,13.83
2023-04-14T06:20:59.414Z,14.07
2023-04-14T06:23:28.399Z,10.90
2023-04-14T06:25:57.109Z,12.63
2023-04-14T06:28:26.063Z,11.10
2023-04-14T06:30:53.566Z,15.13
2023-04-14T06:33:21.060Z,14.17
2023-04-14T06:35:48.586Z,14.30
2023-04-14T06:38:16.309Z,9.80
2023-04-14T06:40:45.096Z,14.13
2023-04-14T06:43:14.103Z,11.57
2023-04-14T06:45:41.639Z,12.43
2023-04-14T06:48:09.313Z,13.07
2023-04-14T06:50:36.828Z,9.90
2023-04-14T06:53:05.674Z,16.03
2023-04-14T06:55:33.169Z,14.50
2023-04-14T06:58:02.239Z,13.73
2023-04-14T07:00:29.806Z,11.17
2023-04-14T07:02:57.659Z,8.60
2023-04-14T07:05:25.419Z,12.90
2023-04-14T07:07:52.996Z,10.10
2023-04-14T07:10:20.913Z,14.20
2023-04-14T07:12:48.696Z,9.10
2023-04-14T07:15:17.834Z,13.03
2023-04-14T07:17:45.559Z,9.90
2023-04-14T07:20:13.270Z,12.33
2023-04-14T07:22:42.119Z,11.20
2023-04-14T07:25:10.406Z,10.70
2023-04-14T07:27:38.117Z,11.53
2023-04-14T07:30:07.214Z,12.70
2023-04-14T07:32:38.220Z,9.17
2023-04-14T07:35:08.588Z,11.57
2023-04-14T07:37:36.358Z,9.97
2023-04-14T07:40:03.991Z,11.97
2023-04-14T07:42:31.998Z,9.00
2023-04-14T07:44:59.759Z,11.23
2023-04-14T07:47:28.915Z,10.20
2023-04-14T07:49:58.325Z,11.27
2023-04-14T07:52:26.842Z,13.60
2023-04-14T07:54:54.390Z,10.77
2023-04-14T07:57:21.973Z,10.00
2023-04-14T07:59:49.545Z,14.87
2023-04-14T08:02:17.669Z,9.10
2023-04-14T08:04:45.352Z,6.53
2023-04-14T08:07:14.458Z,7.57
2023-04-14T08:09:43.312Z,9.63
2023-04-14T08:12:10.910Z,7.43
2023-04-14T08:14:38.720Z,10.13
2023-04-14T08:17:06.889Z,11.37
2023-04-14T08:19:35.082Z,8.17
2023-04-14T08:22:03.872Z,5.43
2023-04-14T08:24:34.891Z,7.60
2023-04-14T08:27:03.960Z,10.70
2023-04-14T08:29:31.961Z,7.17
2023-04-14T08:32:00.255Z,4.60
2023-04-14T08:34:28.971Z,7.10
2023-04-14T08:37:00.447Z,11.43
2023-04-14T08:39:30.271Z,4.37
2023-04-14T08:41:59.854Z,7.30
2023-04-14T08:44:27.926Z,6.53
2023-04-14T08:46:56.571Z,5.40
2023-04-14T08:49:30.140Z,8.60
2023-04-14T08:52:01.810Z,6.07
2023-04-14T08:54:30.344Z,5.20
2023-04-14T08:57:00.833Z,4.03
2023-04-14T08:59:31.978Z,7.40
2023-04-14T09:02:00.975Z,6.67
2023-04-14T09:04:31.112Z,6.10
2023-04-14T09:07:03.452Z,4.30
2023-04-14T09:09:36.454Z,8.33
2023-04-14T09:12:06.780Z,12.07
2023-04-14T09:14:37.585Z,4.93
2023-04-14T09:17:06.922Z,7.63
2023-04-14T09:19:35.989Z,8.40
2023-04-14T09:22:04.514Z,6.87
2023-04-14T09:24:39.218Z,6.60
2023-04-14T09:27:08.961Z,4.37
2023-04-14T09:29:38.898Z,8.73
2023-04-14T09:32:12.684Z,6.53
2023-04-14T09:34:56.546Z,5.67
2023-04-14T09:37:26.636Z,6.30
2023-04-14T09:39:56.248Z,7.13
2023-04-14T09:42:39.729Z,9.93
2023-04-14T09:45:12.362Z,8.90
2023-04-14T09:47:47.102Z,7.23
2023-04-14T09:50:19.228Z,11.93
2023-04-14T09:52:48.809Z,5.13
2023-04-14T09:55:21.259Z,11.07
2023-04-14T09:57:52.598Z,9.83
2023-04-14T10:00:33.088Z,4.80
2023-04-14T10:03:01.901Z,6.43
2023-04-14T10:05:34.771Z,6.17
2023-04-14T10:08:03.937Z,3.40
2023-04-14T10:10:33.306Z,5.80
2023-04-14T10:13:04.408Z,27.17
2023-04-14T10:15:32.976Z,10.83
2023-04-14T10:18:02.895Z,9.83
2023-04-14T10:20:32.670Z,8.10
2023-04-14T10:23:05.253Z,6.30
2023-04-14T10:25:34.329Z,8.87
2023-04-14T10:28:04.688Z,3.33
2023-04-14T10:30:34.241Z,5.97
2023-04-14T10:33:05.107Z,8.00
2023-04-14T10:35:39.057Z,6.17
2023-04-14T10:38:07.038Z,6.30
2023-04-14T10:40:46.861Z,7.20
2023-04-14T10:43:16.015Z,6.13
2023-04-14T10:45:55.116Z,6.07
2023-04-14T10:48:25.324Z,6.97
2023-04-14T10:50:56.445Z,7.47
2023-04-14T10:53:26.498Z,6.47
2023-04-14T10:55:55.595Z,13.27
2023-04-14T10:58:29.180Z,5.13
2023-04-14T11:00:57.881Z,10.10
2023-04-14T11:03:28.769Z,4.73
2023-04-14T11:05:56.734Z,9.40
2023-04-14T11:08:26.569Z,4.60
2023-04-14T11:11:01.961Z,5.47
2023-04-14T11:13:31.668Z,7.30
2023-04-14T11:16:03.303Z,6.27
2023-04-14T11:18:37.137Z,7.03
2023-04-14T11:21:06.459Z,4.53
2023-04-14T11:23:35.164Z,9.03
2023-04-14T11:26:03.421Z,5.80
2023-04-14T11:28:33.487Z,6.00
2023-04-14T11:31:03.525Z,6.03
2023-04-14T11:33:32.307Z,8.43
2023-04-14T11:36:00.143Z,4.77
2023-04-14T11:38:27.786Z,7.27
2023-04-14T11:40:56.612Z,5.37
2023-04-14T11:43:24.713Z,5.03
2023-04-14T11:45:53.841Z,6.50
2023-04-14T11:48:21.698Z,4.10
2023-04-14T11:50:49.518Z,4.13
2023-04-14T11:53:18.209Z,6.90
2023-04-14T11:55:48.258Z,8.30
2023-04-14T11:58:17.135Z,5.43
2023-04-14T12:00:44.701Z,4.30
2023-04-14T12:03:13.891Z,9.23
2023-04-14T12:05:41.864Z,4.70
2023-04-14T12:08:12.031Z,6.23
2023-04-14T12:10:41.057Z,5.27
2023-04-14T12:13:09.995Z,7.83
2023-04-14T12:15:38.893Z,6.20
2023-04-14T12:18:09.145Z,8.40
2023-04-14T12:20:43.966Z,7.50
2023-04-14T12:23:11.662Z,11.57
2023-04-14T12:25:40.395Z,7.83
2023-04-14T12:28:08.538Z,5.37
2023-04-14T12:30:37.322Z,5.87
2023-04-14T12:33:11.269Z,5.57
2023-04-14T12:35:40.355Z,8.30
2023-04-14T12:38:13.630Z,6.10
2023-04-14T12:40:42.547Z,5.77
2023-04-14T12:43:10.281Z,5.10
2023-04-14T12:45:42.039Z,7.00
2023-04-14T12:48:09.771Z,5.63
2023-04-14T12:50:37.708Z,6.47
2023-04-14T12:53:28.479Z,7.37
2023-04-14T12:56:10.230Z,7.80
2023-04-14T12:58:38.860Z,5.43
2023-04-14T13:01:07.980Z,6.80
2023-04-14T13:03:55.727Z,13.40
2023-04-14T13:06:24.866Z,7.00
2023-04-14T13:08:55.944Z,9.90
2023-04-14T13:11:24.298Z,8.07
2023-04-14T13:13:52.301Z,6.70
2023-04-14T13:16:20.760Z,6.67
2023-04-14T13:18:49.435Z,10.60
2023-04-14T13:21:17.676Z,5.10
2023-04-14T13:23:45.577Z,7.33
2023-04-14T13:26:14.712Z,9.13
2023-04-14T13:28:43.140Z,4.43
2023-04-14T13:31:11.629Z,5.10
2023-04-14T13:33:39.304Z,6.83
2023-04-14T13:36:07.641Z,6.53
2023-04-14T13:38:36.034Z,3.80
2023-04-14T13:41:03.994Z,6.80
2023-04-14T13:43:33.550Z,4.73
2023-04-14T13:46:02.224Z,7.07
2023-04-14T13:48:32.140Z,5.30
2023-04-14T13:51:00.166Z,4.17
2023-04-14T13:53:28.082Z,4.37
2023-04-14T13:55:55.996Z,8.07
2023-04-14T13:58:25.338Z,6.93
2023-04-14T14:00:55.355Z,8.80
2023-04-14T14:03:25.644Z,6.27
2023-04-14T14:05:53.799Z,8.00
2023-04-14T14:08:21.693Z,5.80
2023-04-14T14:10:49.393Z,6.47
2023-04-14T14:13:18.643Z,7.40
2023-04-14T14:15:46.562Z,4.57
2023-04-14T14:18:17.088Z,7.77
2023-04-14T14:20:45.301Z,6.50
2023-04-14T14:23:13.200Z,6.00
2023-04-14T14:25:41.186Z,10.23
2023-04-14T14:28:09.006Z,6.60
2023-04-14T14:30:36.618Z,4.60
2023-04-14T14:33:04.385Z,7.53
2023-04-14T14:35:33.535Z,7.53
2023-04-14T14:38:01.382Z,5.07
2023-04-14T14:40:31.916Z,4.90
2023-04-14T14:42:59.960Z,4.00
2023-04-14T14:45:31.034Z,5.70
2023-04-14T14:48:00.070Z,4.80
2023-04-14T14:50:27.924Z,5.50
2023-04-14T14:52:57.200Z,4.17
2023-04-14T14:55:25.446Z,5.70
2023-04-14T14:57:53.396Z,5.43
2023-04-14T15:00:21.483Z,7.00
2023-04-14T15:02:49.167Z,5.57
2023-04-14T15:05:17.168Z,8.33
2023-04-14T15:07:44.844Z,6.90
2023-04-14T15:10:14.587Z,5.50
2023-04-14T15:12:42.340Z,5.10
2023-04-14T15:15:10.612Z,5.97
2023-04-14T15:17:38.720Z,9.00
2023-04-14T15:20:08.333Z,6.53
2023-04-14T15:22:36.425Z,7.87
2023-04-14T15:25:04.232Z,6.97
2023-04-14T15:27:33.242Z,6.53
2023-04-14T15:30:01.050Z,9.10
2023-04-14T15:32:28.819Z,7.30
2023-04-14T15:34:56.778Z,7.00
2023-04-14T15:37:26.162Z,7.47
2023-04-14T15:39:53.872Z,6.10
2023-04-14T15:42:21.815Z,4.00
2023-04-14T15:44:51.719Z,4.77
2023-04-14T15:47:19.688Z,5.43
2023-04-14T15:49:49.851Z,5.90
2023-04-14T15:52:17.807Z,7.40
2023-04-14T15:54:45.517Z,9.87
2023-04-14T15:57:13.369Z,9.73
2023-04-14T15:59:41.616Z,10.10
2023-04-14T16:02:10.648Z,6.80
2023-04-14T16:04:38.590Z,7.57
2023-04-14T16:07:06.350Z,7.33
2023-04-14T16:09:33.988Z,6.90
2023-04-14T16:12:01.708Z,5.03
2023-04-14T16:14:31.842Z,5.50
2023-04-14T16:16:59.423Z,5.23
2023-04-14T16:19:28.707Z,10.13
2023-04-14T16:21:56.924Z,5.60
2023-04-14T16:24:24.747Z,7.90
2023-04-14T16:26:52.375Z,6.90
2023-04-14T16:29:20.387Z,4.63
2023-04-14T16:31:48.119Z,4.30
2023-04-14T16:34:15.729Z,4.83
2023-04-14T16:36:46.859Z,3.20
2023-04-14T16:39:14.840Z,4.00
2023-04-14T16:41:42.648Z,4.13
2023-04-14T16:44:10.325Z,3.77
2023-04-14T16:46:38.334Z,4.03
2023-04-14T16:49:07.685Z,7.20
2023-04-14T16:51:35.444Z,4.97
2023-04-14T16:54:04.919Z,6.30
2023-04-14T16:56:35.615Z,3.93
2023-04-14T16:59:04.049Z,7.73
2023-04-14T17:01:32.853Z,7.30
2023-04-14T17:04:00.860Z,5.30
2023-04-14T17:06:28.885Z,4.27
2023-04-14T17:08:57.410Z,4.53
2023-04-14T17:11:26.963Z,6.57
2023-04-14T17:13:54.714Z,7.10
2023-04-14T17:16:22.759Z,5.37
2023-04-14T17:18:51.811Z,4.83
2023-04-14T17:21:19.397Z,5.37
2023-04-14T17:23:47.858Z,6.00
2023-04-14T17:26:16.894Z,9.30
2023-04-14T17:28:46.077Z,8.00
2023-04-14T17:31:14.455Z,7.67
2023-04-14T17:33:43.009Z,6.70
2023-04-14T17:36:12.558Z,5.97
2023-04-14T17:38:40.480Z,6.73
2023-04-14T17:41:10.405Z,8.10
2023-04-14T17:43:41.210Z,7.50
2023-04-14T17:46:11.098Z,6.80
2023-04-14T17:48:39.105Z,7.93
2023-04-14T17:51:07.279Z,10.67
2023-04-14T17:53:34.920Z,14.53
2023-04-14T17:56:02.946Z,12.90
2023-04-14T17:58:30.675Z,9.40
2023-04-14T18:00:59.117Z,9.80
2023-04-14T18:03:28.639Z,8.93
2023-04-14T18:05:56.560Z,12.07
2023-04-14T18:08:24.713Z,7.47
2023-04-14T18:10:52.440Z,12.97
2023-04-14T18:13:20.208Z,9.00
2023-04-14T18:15:50.527Z,9.10
2023-04-14T18:18:18.403Z,12.87
2023-04-14T18:20:50.061Z,12.00
2023-04-14T18:23:19.027Z,18.30
2023-04-14T18:28:17.658Z,11.80
2023-04-14T18:30:45.424Z,12.43
2023-04-14T18:33:13.194Z,9.93
2023-04-14T18:35:40.887Z,12.47
2023-04-14T18:38:10.119Z,16.90
2023-04-14T18:40:38.246Z,12.60
2023-04-14T18:43:06.213Z,13.03
2023-04-14T18:45:33.965Z,13.73
2023-04-14T18:48:01.724Z,11.73
2023-04-14T18:50:30.632Z,12.63
2023-04-14T18:52:58.485Z,11.17
2023-04-14T18:55:41.774Z,11.90
2023-04-14T18:58:13.725Z,12.23
2023-04-14T19:00:43.072Z,13.53
2023-04-14T19:03:11.066Z,14.67
2023-04-14T19:05:39.426Z,12.90
2023-04-14T19:08:08.270Z,13.53
2023-04-14T19:10:37.345Z,17.27
2023-04-14T19:13:05.136Z,15.43
2023-04-14T19:15:32.971Z,17.37
2023-04-14T19:18:01.184Z,14.27
2023-04-14T19:20:29.843Z,14.37
2023-04-14T19:22:58.345Z,16.00
2023-04-14T19:25:26.016Z,14.63
2023-04-14T19:27:55.905Z,13.57
2023-04-14T19:30:23.695Z,12.10
2023-04-14T19:32:53.357Z,11.00
2023-04-14T19:35:21.708Z,12.83
2023-04-14T19:37:49.863Z,9.83
2023-04-14T19:40:17.850Z,11.07
2023-04-14T19:42:45.564Z,10.83
2023-04-14T19:45:15.482Z,9.43
2023-04-14T19:47:43.694Z,9.03
2023-04-14T19:50:12.463Z,10.57
2023-04-14T19:52:40.147Z,12.43
2023-04-14T19:55:09.132Z,11.57
2023-04-14T19:57:37.069Z,10.73
2023-04-14T20:00:06.779Z,11.20
2023-04-14T20:02:42.207Z,11.17
2023-04-14T20:05:10.489Z,11.10
2023-04-14T20:07:38.142Z,17.50
2023-04-14T20:10:06.474Z,13.60
2023-04-14T20:12:34.184Z,13.10
2023-04-14T20:15:03.332Z,12.60
2023-04-14T20:17:31.019Z,13.30
2023-04-14T20:20:01.464Z,13.77
2023-04-14T20:22:30.176Z,12.80
2023-04-14T20:24:57.839Z,13.97
2023-04-14T20:27:25.819Z,10.87
2023-04-14T20:29:53.609Z,11.43
2023-04-14T20:32:21.427Z,12.33
2023-04-14T20:34:49.180Z,13.23
2023-04-14T20:37:19.057Z,16.83
2023-04-14T20:39:48.380Z,12.20
2023-04-14T20:42:16.793Z,9.40
2023-04-14T20:44:44.601Z,12.40
2023-04-14T20:47:12.557Z,10.17
2023-04-14T20:49:40.256Z,11.40
2023-04-14T20:52:07.966Z,10.77
2023-04-14T20:54:37.537Z,12.03
2023-04-14T20:57:05.609Z,10.67
2023-04-14T20:59:33.593Z,9.37
2023-04-14T21:02:01.458Z,10.97
2023-04-14T21:04:29.399Z,9.90
2023-04-14T21:06:57.572Z,9.70
2023-04-14T21:09:25.326Z,10.83
2023-04-14T21:12:15.526Z,9.23
2023-04-14T21:15:47.512Z,10.17
2023-04-14T21:17:30.216Z,12.60
2023-04-14T21:19:57.938Z,11.90
2023-04-14T21:22:25.571Z,12.37
2023-04-14T21:24:53.425Z,9.27
2023-04-14T21:27:22.748Z,15.57
2023-04-14T21:29:50.540Z,11.03
2023-04-14T21:32:18.648Z,11.70
2023-04-14T21:34:46.379Z,9.60
2023-04-14T21:37:16.775Z,10.43
2023-04-14T21:39:44.631Z,14.07
2023-04-14T21:42:12.359Z,9.93
2023-04-14T21:44:41.536Z,12.10
2023-04-14T21:47:09.658Z,12.80
2023-04-14T21:49:37.700Z,10.40
2023-04-14T21:52:05.479Z,10.30
2023-04-14T21:54:33.088Z,12.13
2023-04-14T21:57:00.908Z,12.00
2023-04-14T21:59:28.633Z,12.77
2023-04-14T22:01:57.840Z,10.73
2023-04-14T22:04:35.841Z,10.50
2023-04-14T22:07:05.307Z,12.90
2023-04-14T22:09:33.517Z,9.30
2023-04-14T22:12:01.940Z,9.20
2023-04-14T22:14:29.521Z,10.50
2023-04-14T22:16:58.504Z,9.73
2023-04-14T22:19:28.607Z,11.40
2023-04-14T22:21:56.242Z,8.90
2023-04-14T22:24:24.026Z,11.77
2023-04-14T22:26:52.181Z,10.73
2023-04-14T22:29:19.727Z,14.70
2023-04-14T22:31:47.284Z,10.10
2023-04-14T22:34:16.861Z,9.13
2023-04-14T22:36:44.340Z,10.70
2023-04-14T22:39:11.857Z,9.20
2023-04-14T22:41:39.374Z,10.00
2023-04-14T22:44:07.832Z,10.30
2023-04-14T22:46:35.973Z,8.90
2023-04-14T22:49:03.866Z,6.97
2023-04-14T22:51:32.874Z,10.37
2023-04-14T22:54:00.674Z,6.20
2023-04-14T22:56:29.127Z,6.00
2023-04-14T22:58:58.110Z,6.40
2023-04-14T23:01:25.706Z,7.03
2023-04-14T23:03:53.574Z,7.80
2023-04-14T23:06:21.337Z,6.27
2023-04-14T23:08:50.919Z,6.53
2023-04-14T23:11:21.015Z,9.73
2023-04-14T23:13:51.313Z,9.97
2023-04-14T23:16:20.505Z,5.23
2023-04-14T23:18:49.514Z,6.17
2023-04-14T23:21:17.802Z,7.80
2023-04-14T23:23:45.364Z,7.03
2023-04-14T23:26:14.620Z,10.00
2023-04-14T23:28:42.194Z,7.70
2023-04-14T23:31:09.871Z,6.60
2023-04-14T23:33:37.483Z,7.60
2023-04-14T23:36:06.378Z,8.90
2023-04-14T23:38:34.019Z,7.43
2023-04-14T23:41:02.139Z,5.77
2023-04-14T23:43:31.539Z,6.23
2023-04-14T23:45:59.410Z,7.50
2023-04-14T23:48:27.072Z,7.93
2023-04-14T23:51:01.320Z,8.43
2023-04-14T23:53:42.694Z,7.60
2023-04-14T23:56:10.266Z,10.43
2023-04-14T23:58:39.552Z,8.00
